createdAt,value
2022-10-18T00:00:35.500Z,98137.13
2022-10-18T00:03:37.629Z,98135.84
2022-10-18T00:06:42.616Z,98137.03
2022-10-18T00:09:45.173Z,98136.84
2022-10-18T00:15:59.081Z,98135.56
2022-10-18T00:19:00.800Z,98135.66
2022-10-18T00:22:02.312Z,98140.78
2022-10-18T00:25:05.417Z,98145.94
2022-10-18T00:28:06.934Z,98131.97
2022-10-18T00:31:14.669Z,98127.47
2022-10-18T00:34:16.918Z,98119.69
2022-10-18T00:37:18.760Z,98125.28
2022-10-18T00:40:20.289Z,98124.91
2022-10-18T00:43:21.808Z,98123.94
2022-10-18T00:46:25.008Z,98124.81
2022-10-18T00:49:32.548Z,98122.16
2022-10-18T00:52:40.309Z,98116.47
2022-10-18T00:55:42.013Z,98124.75
2022-10-18T00:58:44.544Z,98125.56
2022-10-18T01:01:46.997Z,98128.22
2022-10-18T01:04:48.750Z,98114.09
2022-10-18T01:08:06.379Z,98120.06
2022-10-18T01:11:46.408Z,98119.06
2022-10-18T01:15:31.585Z,98115.84
2022-10-18T01:18:41.576Z,98114.00
2022-10-18T01:21:50.048Z,98116.28
2022-10-18T01:25:14.154Z,98115.09
2022-10-18T01:28:24.723Z,98118.59
2022-10-18T01:31:36.697Z,98122.53
2022-10-18T01:34:40.479Z,98123.38
2022-10-18T01:37:45.132Z,98121.91
2022-10-18T01:40:50.301Z,98114.72
2022-10-18T01:43:58.656Z,98117.13
2022-10-18T01:47:01.153Z,98118.31
2022-10-18T01:50:06.160Z,98119.13
2022-10-18T01:53:21.671Z,98112.72
2022-10-18T01:56:55.041Z,98118.22
2022-10-18T02:00:11.383Z,98109.59
2022-10-18T02:03:23.945Z,98108.31
2022-10-18T02:06:31.756Z,98094.19
2022-10-18T02:09:42.815Z,98111.97
2022-10-18T02:12:46.676Z,98102.69
2022-10-18T02:15:52.460Z,98102.69
2022-10-18T02:19:00.897Z,98086.53
2022-10-18T02:22:04.378Z,98099.50
2022-10-18T02:25:13.484Z,98110.31
2022-10-18T02:28:15.368Z,98076.72
2022-10-18T02:31:27.114Z,98092.69
2022-10-18T02:34:42.414Z,98096.56
2022-10-18T02:37:46.737Z,98108.88
2022-10-18T02:40:48.248Z,98103.34
2022-10-18T02:43:49.789Z,98103.72
2022-10-18T02:46:52.481Z,98115.94
2022-10-18T02:49:53.956Z,98127.28
2022-10-18T02:52:55.519Z,98140.31
2022-10-18T02:55:57.052Z,98139.38
2022-10-18T02:58:58.532Z,98135.91
2022-10-18T03:02:00.035Z,98132.44
2022-10-18T03:05:01.668Z,98143.25
2022-10-18T03:08:03.317Z,98144.97
2022-10-18T03:11:04.872Z,98153.84
2022-10-18T03:14:06.449Z,98152.44
2022-10-18T03:17:08.140Z,98149.66
2022-10-18T03:20:10.212Z,98150.38
2022-10-18T03:23:11.668Z,98150.94
2022-10-18T03:26:13.166Z,98158.44
2022-10-18T03:29:14.688Z,98159.78
2022-10-18T03:32:16.163Z,98159.13
2022-10-18T03:35:17.804Z,98152.88
2022-10-18T03:38:19.314Z,98148.56
2022-10-18T03:41:20.906Z,98156.88
2022-10-18T03:44:22.411Z,98161.91
2022-10-18T03:47:24.024Z,98172.22
2022-10-18T03:50:25.524Z,98178.41
2022-10-18T03:53:27.035Z,98176.63
2022-10-18T03:56:28.579Z,98177.91
2022-10-18T03:59:30.067Z,98181.88
2022-10-18T04:02:31.933Z,98190.81
2022-10-18T04:05:34.498Z,98185.63
2022-10-18T04:08:36.212Z,98188.06
2022-10-18T04:11:37.828Z,98171.78
2022-10-18T04:14:39.334Z,98187.88
2022-10-18T04:17:41.422Z,98181.53
2022-10-18T04:20:42.886Z,98179.72
2022-10-18T04:23:46.862Z,98177.75
2022-10-18T04:26:48.508Z,98164.22
2022-10-18T04:29:49.986Z,98171.88
2022-10-18T04:32:51.532Z,98173.56
2022-10-18T04:35:53.374Z,98169.75
2022-10-18T04:38:54.844Z,98167.97
2022-10-18T04:41:56.354Z,98172.81
2022-10-18T04:44:57.853Z,98174.00
2022-10-18T04:47:59.331Z,98166.53
2022-10-18T04:51:00.931Z,98164.69
2022-10-18T04:54:02.681Z,98175.50
2022-10-18T04:57:04.425Z,98170.00
2022-10-18T05:00:06.496Z,98177.81
2022-10-18T05:03:08.605Z,98187.41
2022-10-18T05:06:10.266Z,98185.88
2022-10-18T05:09:11.839Z,98174.28
2022-10-18T05:12:13.315Z,98175.91
2022-10-18T05:15:14.982Z,98181.88
2022-10-18T05:18:18.811Z,98169.38
2022-10-18T05:21:20.409Z,98183.13
2022-10-18T05:24:24.206Z,98185.06
2022-10-18T05:27:29.231Z,98179.25
2022-10-18T05:30:30.760Z,98175.56
2022-10-18T05:33:32.927Z,98177.22
2022-10-18T05:36:34.399Z,98178.06
2022-10-18T05:39:37.303Z,98184.03
2022-10-18T05:42:38.746Z,98180.19
2022-10-18T05:45:40.198Z,98179.66
2022-10-18T05:48:43.163Z,98176.47
2022-10-18T05:51:44.636Z,98181.88
2022-10-18T05:54:48.628Z,98176.22
2022-10-18T05:57:50.508Z,98190.88
2022-10-18T06:00:52.035Z,98168.13
2022-10-18T06:03:53.492Z,98174.03
2022-10-18T06:06:57.576Z,98173.69
2022-10-18T06:09:58.928Z,98182.13
2022-10-18T06:13:00.407Z,98189.41
2022-10-18T06:16:01.930Z,98181.06
2022-10-18T06:19:03.741Z,98192.09
2022-10-18T06:22:05.296Z,98188.69
2022-10-18T06:25:07.033Z,98187.53
2022-10-18T06:28:10.256Z,98199.84
2022-10-18T06:31:14.337Z,98196.59
2022-10-18T06:34:15.762Z,98191.19
2022-10-18T06:37:17.343Z,98199.38
2022-10-18T06:40:18.798Z,98214.63
2022-10-18T06:43:21.514Z,98210.13
2022-10-18T06:46:24.085Z,98216.25
2022-10-18T06:49:25.609Z,98204.47
2022-10-18T06:52:27.076Z,98213.00
2022-10-18T06:55:28.764Z,98220.34
2022-10-18T06:58:30.986Z,98218.66
2022-10-18T07:01:32.535Z,98220.09
2022-10-18T07:04:34.129Z,98222.72
2022-10-18T07:07:35.895Z,98223.50
2022-10-18T07:10:37.608Z,98218.44
2022-10-18T07:13:39.064Z,98214.44
2022-10-18T07:16:40.483Z,98224.22
2022-10-18T07:19:42.005Z,98212.31
2022-10-18T07:22:43.438Z,98223.91
2022-10-18T07:25:44.969Z,98235.69
2022-10-18T07:28:49.706Z,98238.78
2022-10-18T07:31:51.244Z,98249.91
2022-10-18T07:34:52.692Z,98240.28
2022-10-18T07:37:54.121Z,98246.78
2022-10-18T07:41:00.152Z,98254.53
2022-10-18T07:44:02.586Z,98264.44
2022-10-18T07:47:04.132Z,98250.28
2022-10-18T07:50:08.389Z,98249.13
2022-10-18T07:53:09.852Z,98255.72
2022-10-18T07:56:16.966Z,98252.47
2022-10-18T07:59:18.436Z,98247.44
2022-10-18T08:02:19.935Z,98247.78
2022-10-18T08:05:21.391Z,98254.75
2022-10-18T08:08:24.278Z,98242.13
2022-10-18T08:11:26.140Z,98247.25
2022-10-18T08:14:27.652Z,98253.31
2022-10-18T08:17:29.197Z,98245.44
2022-10-18T08:20:32.012Z,98252.69
2022-10-18T08:23:33.865Z,98246.25
2022-10-18T08:26:35.377Z,98245.78
2022-10-18T08:29:36.850Z,98249.69
2022-10-18T08:32:38.419Z,98243.78
2022-10-18T08:35:39.845Z,98242.22
2022-10-18T08:38:42.399Z,98244.75
2022-10-18T08:42:14.626Z,98240.97
2022-10-18T08:45:41.098Z,98232.44
2022-10-18T08:48:43.255Z,98256.88
2022-10-18T08:51:49.144Z,98241.03
2022-10-18T08:55:03.332Z,98246.75
2022-10-18T08:58:19.215Z,98253.22
2022-10-18T09:01:50.948Z,98252.00
2022-10-18T09:05:16.708Z,98255.16
2022-10-18T09:08:47.261Z,98252.28
2022-10-18T09:12:26.291Z,98251.06
2022-10-18T09:15:27.720Z,98253.28
2022-10-18T09:18:54.648Z,98261.72
2022-10-18T09:22:17.975Z,98268.75
2022-10-18T09:25:35.278Z,98260.47
2022-10-18T09:28:56.381Z,98257.06
2022-10-18T09:32:04.704Z,98252.63
2022-10-18T09:35:18.393Z,98255.41
2022-10-18T09:41:53.280Z,98253.06
2022-10-18T09:45:02.853Z,98250.88
2022-10-18T09:48:11.444Z,98252.38
2022-10-18T09:51:22.157Z,98250.78
2022-10-18T09:54:33.858Z,98252.72
2022-10-18T09:57:41.081Z,98251.13
2022-10-18T10:00:48.236Z,98250.09
2022-10-18T10:03:49.989Z,98246.81
2022-10-18T10:06:53.981Z,98249.03
2022-10-18T10:09:56.628Z,98249.69
2022-10-18T10:13:26.148Z,98248.50
2022-10-18T10:16:28.016Z,98253.94
2022-10-18T10:19:55.319Z,98254.69
2022-10-18T10:23:07.113Z,98242.88
2022-10-18T10:26:29.982Z,98245.50
2022-10-18T10:29:46.806Z,98242.72
2022-10-18T10:32:50.755Z,98237.28
2022-10-18T10:35:58.316Z,98243.25
2022-10-18T10:39:19.043Z,98236.81
2022-10-18T10:42:20.588Z,98236.03
2022-10-18T10:45:27.352Z,98230.91
2022-10-18T10:48:33.999Z,98226.81
2022-10-18T10:51:38.412Z,98226.50
2022-10-18T10:54:45.571Z,98224.78
2022-10-18T10:57:52.207Z,98222.84
2022-10-18T11:00:56.248Z,98228.75
2022-10-18T11:04:22.837Z,98232.94
2022-10-18T11:07:36.490Z,98231.31
2022-10-18T11:11:07.285Z,98225.31
2022-10-18T11:14:31.870Z,98230.53
2022-10-18T11:17:44.511Z,98237.66
2022-10-18T11:21:16.601Z,98239.66
2022-10-18T11:24:18.232Z,98240.28
2022-10-18T11:27:28.277Z,98244.22
2022-10-18T11:30:36.955Z,98242.47
2022-10-18T11:34:08.311Z,98241.53
2022-10-18T11:37:53.608Z,98236.28
2022-10-18T11:41:37.352Z,98235.91
2022-10-18T11:45:27.030Z,98232.97
2022-10-18T11:48:34.634Z,98220.13
2022-10-18T11:52:19.555Z,98214.66
2022-10-18T11:55:25.682Z,98210.44
2022-10-18T11:58:37.881Z,98205.56
2022-10-18T12:02:05.221Z,98201.81
2022-10-18T12:05:23.216Z,98202.41
2022-10-18T12:08:31.582Z,98197.84
2022-10-18T12:11:41.846Z,98186.13
2022-10-18T12:14:53.012Z,98196.59
2022-10-18T12:17:58.432Z,98190.72
2022-10-18T12:21:01.871Z,98189.13
2022-10-18T12:24:11.270Z,98183.97
2022-10-18T12:27:15.716Z,98182.00
2022-10-18T12:30:27.034Z,98179.34
2022-10-18T12:33:35.813Z,98173.53
2022-10-18T12:36:53.729Z,98183.00
2022-10-18T12:40:15.525Z,98178.34
2022-10-18T12:43:26.392Z,98176.38
2022-10-18T12:46:45.543Z,98169.69
2022-10-18T12:49:56.848Z,98162.88
2022-10-18T12:53:06.680Z,98169.81
2022-10-18T12:56:30.128Z,98174.25
2022-10-18T12:59:31.641Z,98161.38
2022-10-18T13:02:33.502Z,98155.63
2022-10-18T13:05:55.580Z,98157.00
2022-10-18T13:09:19.935Z,98156.47
2022-10-18T13:12:21.368Z,98145.13
2022-10-18T13:15:41.334Z,98151.59
2022-10-18T13:18:54.975Z,98147.69
2022-10-18T13:22:24.388Z,98149.81
2022-10-18T13:25:49.915Z,98139.84
2022-10-18T13:29:18.620Z,98142.91
2022-10-18T13:32:36.863Z,98147.34
2022-10-18T13:35:40.670Z,98139.38
2022-10-18T13:38:47.268Z,98141.84
2022-10-18T13:41:49.932Z,98144.63
2022-10-18T13:44:52.260Z,98148.50
2022-10-18T13:47:53.758Z,98143.34
2022-10-18T13:51:09.856Z,98142.34
2022-10-18T13:54:22.430Z,98145.19
2022-10-18T13:57:34.481Z,98146.16
2022-10-18T14:00:54.056Z,98147.34
2022-10-18T14:04:16.619Z,98144.84
2022-10-18T14:07:19.273Z,98153.97
2022-10-18T14:10:43.302Z,98151.28
2022-10-18T14:13:56.196Z,98153.63
2022-10-18T14:17:17.894Z,98150.13
2022-10-18T14:20:28.717Z,98146.09
2022-10-18T14:23:43.150Z,98153.97
2022-10-18T14:26:44.716Z,98140.88
2022-10-18T14:29:47.353Z,98123.25
2022-10-18T14:32:54.328Z,98135.94
2022-10-18T14:36:16.062Z,98140.03
2022-10-18T14:39:23.986Z,98141.78
2022-10-18T14:42:27.264Z,98128.78
2022-10-18T14:45:28.779Z,98133.56
2022-10-18T14:48:30.260Z,98131.50
2022-10-18T14:51:35.370Z,98118.97
2022-10-18T14:54:38.146Z,98120.78
2022-10-18T14:57:39.816Z,98125.81
2022-10-18T15:00:43.878Z,98118.88
2022-10-18T15:03:48.302Z,98130.66
2022-10-18T15:06:50.119Z,98132.44
2022-10-18T15:09:52.110Z,98123.66
2022-10-18T15:13:10.478Z,98122.84
2022-10-18T15:16:18.328Z,98126.03
2022-10-18T15:19:30.025Z,98121.72
2022-10-18T15:22:33.322Z,98124.28
2022-10-18T15:25:35.912Z,98130.53
2022-10-18T15:28:51.083Z,98124.88
2022-10-18T15:31:52.682Z,98113.13
2022-10-18T15:34:54.823Z,98119.84
2022-10-18T15:37:58.714Z,98120.78
2022-10-18T15:41:00.253Z,98117.13
2022-10-18T15:44:19.185Z,98115.13
2022-10-18T15:47:24.888Z,98109.84
2022-10-18T15:50:50.611Z,98119.84
2022-10-18T15:53:54.241Z,98111.13
2022-10-18T15:56:56.564Z,98112.44
2022-10-18T16:00:03.692Z,98115.47
2022-10-18T16:03:14.451Z,98096.00
2022-10-18T16:06:18.251Z,98102.44
2022-10-18T16:09:22.454Z,98107.38
2022-10-18T16:12:23.849Z,98103.09
2022-10-18T16:15:25.315Z,98099.00
2022-10-18T16:18:26.872Z,98105.78
2022-10-18T16:21:37.187Z,98111.50
2022-10-18T16:24:39.162Z,98109.13
2022-10-18T16:27:40.718Z,98115.59
2022-10-18T16:30:44.981Z,98109.97
2022-10-18T16:33:46.758Z,98117.72
2022-10-18T16:36:48.321Z,98113.44
2022-10-18T16:39:49.923Z,98113.41
2022-10-18T16:42:51.490Z,98116.56
2022-10-18T16:45:54.199Z,98113.09
2022-10-18T16:48:56.063Z,98122.38
2022-10-18T16:51:57.778Z,98126.50
2022-10-18T16:54:59.301Z,98129.19
2022-10-18T16:58:00.839Z,98129.81
2022-10-18T17:01:04.221Z,98137.38
2022-10-18T17:04:08.315Z,98138.00
2022-10-18T17:10:28.325Z,98135.88
2022-10-18T17:13:29.888Z,98138.56
2022-10-18T17:16:33.582Z,98146.16
2022-10-18T17:19:35.242Z,98158.06
2022-10-18T17:22:36.805Z,98154.31
2022-10-18T17:25:51.451Z,98158.75
2022-10-18T17:29:05.082Z,98153.41
2022-10-18T17:32:07.689Z,98159.31
2022-10-18T17:35:09.512Z,98161.78
2022-10-18T17:38:11.288Z,98161.91
2022-10-18T17:41:12.990Z,98160.03
2022-10-18T17:44:14.576Z,98162.91
2022-10-18T17:47:16.033Z,98170.63
2022-10-18T17:50:17.685Z,98164.13
2022-10-18T17:53:22.773Z,98179.16
2022-10-18T17:56:24.767Z,98167.59
2022-10-18T17:59:26.282Z,98176.78
2022-10-18T18:02:27.861Z,98167.72
2022-10-18T18:05:33.935Z,98173.84
2022-10-18T18:08:35.428Z,98167.63
2022-10-18T18:11:39.244Z,98174.09
2022-10-18T18:14:40.775Z,98186.75
2022-10-18T18:17:58.243Z,98182.38
2022-10-18T18:20:59.968Z,98179.81
2022-10-18T18:24:01.652Z,98180.19
2022-10-18T18:27:03.147Z,98179.34
2022-10-18T18:30:07.600Z,98182.84
2022-10-18T18:33:13.735Z,98173.94
2022-10-18T18:36:18.105Z,98173.88
2022-10-18T18:39:24.902Z,98169.84
2022-10-18T18:42:26.388Z,98176.22
2022-10-18T18:45:29.142Z,98181.03
2022-10-18T18:48:33.464Z,98175.81
2022-10-18T18:51:37.938Z,98177.16
2022-10-18T18:54:39.479Z,98181.50
2022-10-18T18:57:41.061Z,98185.66
2022-10-18T19:00:44.568Z,98186.03
2022-10-18T19:03:48.931Z,98179.34
2022-10-18T19:06:50.416Z,98186.75
2022-10-18T19:09:52.085Z,98180.00
2022-10-18T19:12:53.939Z,98175.31
2022-10-18T19:16:16.869Z,98181.63
2022-10-18T19:19:21.263Z,98172.25
2022-10-18T19:22:22.743Z,98187.72
2022-10-18T19:25:26.272Z,98188.25
2022-10-18T19:28:28.760Z,98179.31
2022-10-18T19:31:30.390Z,98186.03
2022-10-18T19:34:34.306Z,98180.44
2022-10-18T19:37:36.125Z,98179.13
2022-10-18T19:40:37.642Z,98179.00
2022-10-18T19:43:39.081Z,98174.41
2022-10-18T19:46:40.567Z,98171.63
2022-10-18T19:53:15.665Z,98178.16
2022-10-18T19:56:20.329Z,98176.25
2022-10-18T19:59:22.821Z,98171.63
2022-10-18T20:02:24.380Z,98170.50
2022-10-18T20:05:25.813Z,98170.75
2022-10-18T20:08:29.614Z,98167.16
2022-10-18T20:11:32.619Z,98162.84
2022-10-18T20:14:34.252Z,98160.56
2022-10-18T20:17:35.855Z,98172.84
2022-10-18T20:20:37.598Z,98166.56
2022-10-18T20:23:41.510Z,98172.00
2022-10-18T20:26:43.712Z,98180.00
2022-10-18T20:29:46.824Z,98163.38
2022-10-18T20:32:51.642Z,98173.38
2022-10-18T20:35:53.300Z,98157.16
2022-10-18T20:38:55.339Z,98168.66
2022-10-18T20:41:56.846Z,98175.16
2022-10-18T20:44:58.492Z,98163.84
2022-10-18T20:48:00.118Z,98173.50
2022-10-18T20:51:07.030Z,98167.72
2022-10-18T20:54:10.091Z,98164.16
2022-10-18T20:57:11.646Z,98166.31
2022-10-18T21:00:13.718Z,98163.09
2022-10-18T21:03:15.274Z,98161.25
2022-10-18T21:06:19.389Z,98152.13
2022-10-18T21:09:21.253Z,98158.06
2022-10-18T21:12:23.988Z,98148.66
2022-10-18T21:15:27.058Z,98156.28
2022-10-18T21:18:31.249Z,98159.78
2022-10-18T21:21:33.419Z,98149.31
2022-10-18T21:24:35.078Z,98145.16
2022-10-18T21:27:36.737Z,98136.88
2022-10-18T21:30:38.293Z,98141.72
2022-10-18T21:33:41.233Z,98137.56
2022-10-18T21:36:44.987Z,98132.63
2022-10-18T21:39:46.597Z,98137.78
2022-10-18T21:42:48.071Z,98132.00
2022-10-18T21:45:49.549Z,98136.13
2022-10-18T21:48:52.661Z,98136.59
2022-10-18T21:51:54.278Z,98133.47
2022-10-18T21:54:55.866Z,98118.88
2022-10-18T21:57:57.525Z,98130.31
2022-10-18T22:00:59.117Z,98125.72
2022-10-18T22:04:03.916Z,98121.44
2022-10-18T22:07:05.472Z,98118.31
2022-10-18T22:10:07.319Z,98105.84
2022-10-18T22:13:08.789Z,98110.16
2022-10-18T22:16:12.393Z,98112.19
2022-10-18T22:19:14.054Z,98106.22
2022-10-18T22:22:15.597Z,98110.03
2022-10-18T22:25:17.167Z,98111.53
2022-10-18T22:28:18.721Z,98116.22
2022-10-18T22:31:22.635Z,98104.31
2022-10-18T22:34:29.006Z,98103.16
2022-10-18T22:37:30.781Z,98100.16
2022-10-18T22:40:32.450Z,98097.19
2022-10-18T22:43:35.027Z,98104.50
2022-10-18T22:46:36.561Z,98093.88
2022-10-18T22:49:38.119Z,98092.53
2022-10-18T22:52:39.674Z,98089.88
2022-10-18T22:55:41.229Z,98082.28
2022-10-18T22:58:42.888Z,98088.41
2022-10-18T23:01:44.347Z,98088.25
2022-10-18T23:04:45.847Z,98082.63
2022-10-18T23:07:49.230Z,98086.25
2022-10-18T23:10:55.329Z,98084.97
2022-10-18T23:13:57.017Z,98084.78
2022-10-18T23:16:58.576Z,98092.75
2022-10-18T23:20:00.064Z,98082.31
2022-10-18T23:23:01.587Z,98082.94
2022-10-18T23:26:05.540Z,98077.31
2022-10-18T23:29:07.165Z,98070.22
2022-10-18T23:32:08.965Z,98072.00
2022-10-18T23:35:10.562Z,98070.53
2022-10-18T23:38:12.071Z,98067.75
2022-10-18T23:41:15.368Z,98071.41
2022-10-18T23:44:16.886Z,98068.25
2022-10-18T23:47:18.567Z,98075.75
2022-10-18T23:50:20.101Z,98065.47
2022-10-18T23:53:22.375Z,98067.94
2022-10-18T23:56:24.039Z,98052.19
2022-10-18T23:59:25.641Z,98057.84
